sensor_id;sensor_type;location;lat;lon;timestamp;temperature;humidity
24902;DHT22;31328;51.402;0.016;2023-02-25T00:01:09;5.60;99.90
24902;DHT22;31328;51.402;0.016;2023-02-25T00:03:37;5.60;99.90
24902;DHT22;31328;51.402;0.016;2023-02-25T00:06:09;5.60;99.90
24902;DHT22;31328;51.402;0.016;2023-02-25T00:08:35;5.50;99.90
24902;DHT22;31328;51.402;0.016;2023-02-25T00:11:03;5.50;99.90
24902;DHT22;31328;51.402;0.016;2023-02-25T00:13:31;5.50;99.90
24902;DHT22;31328;51.402;0.016;2023-02-25T00:15:57;5.50;99.90
24902;DHT22;31328;51.402;0.016;2023-02-25T00:18:27;5.50;99.90
24902;DHT22;31328;51.402;0.016;2023-02-25T00:20:54;5.50;99.90
24902;DHT22;31328;51.402;0.016;2023-02-25T00:23:20;5.50;99.90
24902;DHT22;31328;51.402;0.016;2023-02-25T00:25:46;5.50;99.90
24902;DHT22;31328;51.402;0.016;2023-02-25T00:28:13;5.50;99.90
24902;DHT22;31328;51.402;0.016;2023-02-25T00:30:40;5.40;99.90
24902;DHT22;31328;51.402;0.016;2023-02-25T00:33:08;5.40;99.90
24902;DHT22;31328;51.402;0.016;2023-02-25T00:35:39;5.40;99.90
24902;DHT22;31328;51.402;0.016;2023-02-25T00:38:08;5.40;99.90
24902;DHT22;31328;51.402;0.016;2023-02-25T00:40:39;5.30;99.90
24902;DHT22;31328;51.402;0.016;2023-02-25T00:43:06;5.30;99.90
24902;DHT22;31328;51.402;0.016;2023-02-25T00:45:33;5.30;99.90
24902;DHT22;31328;51.402;0.016;2023-02-25T00:47:59;5.30;99.90
24902;DHT22;31328;51.402;0.016;2023-02-25T00:50:25;5.20;99.90
24902;DHT22;31328;51.402;0.016;2023-02-25T00:52:53;5.20;99.90
24902;DHT22;31328;51.402;0.016;2023-02-25T00:55:20;5.20;99.90
24902;DHT22;31328;51.402;0.016;2023-02-25T00:57:46;5.20;99.90
24902;DHT22;31328;51.402;0.016;2023-02-25T01:00:13;5.20;99.90
24902;DHT22;31328;51.402;0.016;2023-02-25T01:02:43;5.20;99.90
24902;DHT22;31328;51.402;0.016;2023-02-25T01:05:13;5.30;99.90
24902;DHT22;31328;51.402;0.016;2023-02-25T01:07:41;5.30;99.90
24902;DHT22;31328;51.402;0.016;2023-02-25T01:10:08;5.30;99.90
24902;DHT22;31328;51.402;0.016;2023-02-25T01:12:36;5.30;99.90
24902;DHT22;31328;51.402;0.016;2023-02-25T01:15:03;5.40;99.90
24902;DHT22;31328;51.402;0.016;2023-02-25T01:17:33;5.40;99.90
24902;DHT22;31328;51.402;0.016;2023-02-25T01:19:59;5.40;99.90
24902;DHT22;31328;51.402;0.016;2023-02-25T01:22:26;5.40;99.90
24902;DHT22;31328;51.402;0.016;2023-02-25T01:24:54;5.50;99.90
24902;DHT22;31328;51.402;0.016;2023-02-25T01:27:21;5.40;99.90
24902;DHT22;31328;51.402;0.016;2023-02-25T01:29:47;5.40;99.90
24902;DHT22;31328;51.402;0.016;2023-02-25T01:32:14;5.40;99.90
24902;DHT22;31328;51.402;0.016;2023-02-25T01:34:41;5.40;99.90
24902;DHT22;31328;51.402;0.016;2023-02-25T01:37:08;5.40;99.90
24902;DHT22;31328;51.402;0.016;2023-02-25T01:39:39;5.30;99.90
24902;DHT22;31328;51.402;0.016;2023-02-25T01:42:14;5.30;99.90
24902;DHT22;31328;51.402;0.016;2023-02-25T01:50:35;5.20;99.90
24902;DHT22;31328;51.402;0.016;2023-02-25T01:53:03;5.10;99.90
24902;DHT22;31328;51.402;0.016;2023-02-25T01:55:30;5.10;99.90
24902;DHT22;31328;51.402;0.016;2023-02-25T01:57:59;5.10;99.90
24902;DHT22;31328;51.402;0.016;2023-02-25T02:00:28;5.10;99.90
24902;DHT22;31328;51.402;0.016;2023-02-25T02:02:56;5.10;99.90
24902;DHT22;31328;51.402;0.016;2023-02-25T02:05:34;5.10;99.90
24902;DHT22;31328;51.402;0.016;2023-02-25T02:08:02;5.10;99.90
24902;DHT22;31328;51.402;0.016;2023-02-25T02:10:30;5.20;99.90
24902;DHT22;31328;51.402;0.016;2023-02-25T02:12:56;5.20;99.90
24902;DHT22;31328;51.402;0.016;2023-02-25T02:15:22;5.20;99.90
24902;DHT22;31328;51.402;0.016;2023-02-25T02:17:58;5.20;99.90
24902;DHT22;31328;51.402;0.016;2023-02-25T02:20:29;5.30;99.90
24902;DHT22;31328;51.402;0.016;2023-02-25T02:23:08;5.30;99.90
24902;DHT22;31328;51.402;0.016;2023-02-25T02:34:03;5.40;99.90
24902;DHT22;31328;51.402;0.016;2023-02-25T02:37:01;5.40;99.90
24902;DHT22;31328;51.402;0.016;2023-02-25T02:42:07;5.40;99.90
24902;DHT22;31328;51.402;0.016;2023-02-25T02:44:55;5.40;99.90
24902;DHT22;31328;51.402;0.016;2023-02-25T02:47:32;5.40;99.90
24902;DHT22;31328;51.402;0.016;2023-02-25T02:50:05;5.40;99.90
24902;DHT22;31328;51.402;0.016;2023-02-25T02:52:37;5.40;99.90
24902;DHT22;31328;51.402;0.016;2023-02-25T02:55:10;5.40;99.90
24902;DHT22;31328;51.402;0.016;2023-02-25T02:57:39;5.40;99.90
24902;DHT22;31328;51.402;0.016;2023-02-25T03:00:12;5.40;99.90
24902;DHT22;31328;51.402;0.016;2023-02-25T03:02:59;5.40;99.90
24902;DHT22;31328;51.402;0.016;2023-02-25T03:05:28;5.30;99.90
24902;DHT22;31328;51.402;0.016;2023-02-25T03:08:24;5.40;99.90
24902;DHT22;31328;51.402;0.016;2023-02-25T03:10:53;5.30;99.90
24902;DHT22;31328;51.402;0.016;2023-02-25T03:13:20;5.30;99.90
24902;DHT22;31328;51.402;0.016;2023-02-25T03:15:48;5.30;99.90
24902;DHT22;31328;51.402;0.016;2023-02-25T03:18:26;5.30;99.90
24902;DHT22;31328;51.402;0.016;2023-02-25T03:20:56;5.30;99.90
24902;DHT22;31328;51.402;0.016;2023-02-25T03:23:32;5.20;99.90
24902;DHT22;31328;51.402;0.016;2023-02-25T03:26:25;5.20;99.90
24902;DHT22;31328;51.402;0.016;2023-02-25T03:28:57;5.30;99.90
24902;DHT22;31328;51.402;0.016;2023-02-25T03:31:25;5.20;99.90
24902;DHT22;31328;51.402;0.016;2023-02-25T03:34:05;5.20;99.90
24902;DHT22;31328;51.402;0.016;2023-02-25T03:36:36;5.20;99.90
24902;DHT22;31328;51.402;0.016;2023-02-25T03:39:18;5.20;99.90
24902;DHT22;31328;51.402;0.016;2023-02-25T03:41:51;5.20;99.90
24902;DHT22;31328;51.402;0.016;2023-02-25T03:44:25;5.20;99.90
24902;DHT22;31328;51.402;0.016;2023-02-25T03:46:52;5.10;99.90
24902;DHT22;31328;51.402;0.016;2023-02-25T03:49:25;5.10;99.90
24902;DHT22;31328;51.402;0.016;2023-02-25T03:51:54;5.00;99.90
24902;DHT22;31328;51.402;0.016;2023-02-25T03:54:21;5.00;99.90
24902;DHT22;31328;51.402;0.016;2023-02-25T03:56:50;5.00;99.90
24902;DHT22;31328;51.402;0.016;2023-02-25T03:59:17;5.00;99.90
24902;DHT22;31328;51.402;0.016;2023-02-25T04:01:48;5.00;99.90
24902;DHT22;31328;51.402;0.016;2023-02-25T04:04:16;5.00;99.90
24902;DHT22;31328;51.402;0.016;2023-02-25T04:06:42;5.00;99.90
24902;DHT22;31328;51.402;0.016;2023-02-25T04:09:09;5.00;99.90
24902;DHT22;31328;51.402;0.016;2023-02-25T04:11:35;5.00;99.90
24902;DHT22;31328;51.402;0.016;2023-02-25T04:14:01;5.00;99.90
24902;DHT22;31328;51.402;0.016;2023-02-25T04:16:28;5.00;99.90
24902;DHT22;31328;51.402;0.016;2023-02-25T04:18:56;5.00;99.90
24902;DHT22;31328;51.402;0.016;2023-02-25T04:21:31;5.00;99.90
24902;DHT22;31328;51.402;0.016;2023-02-25T04:23:57;5.10;99.90
24902;DHT22;31328;51.402;0.016;2023-02-25T04:26:24;5.10;99.90
24902;DHT22;31328;51.402;0.016;2023-02-25T04:28:51;5.10;99.90
24902;DHT22;31328;51.402;0.016;2023-02-25T04:31:17;5.10;99.90
24902;DHT22;31328;51.402;0.016;2023-02-25T04:33:44;5.10;99.90
24902;DHT22;31328;51.402;0.016;2023-02-25T04:36:31;5.10;99.90
24902;DHT22;31328;51.402;0.016;2023-02-25T04:39:00;5.10;99.90
24902;DHT22;31328;51.402;0.016;2023-02-25T04:41:32;5.10;99.90
24902;DHT22;31328;51.402;0.016;2023-02-25T04:43:59;5.10;99.90
24902;DHT22;31328;51.402;0.016;2023-02-25T04:46:29;5.20;99.90
24902;DHT22;31328;51.402;0.016;2023-02-25T04:48:55;5.10;99.90
24902;DHT22;31328;51.402;0.016;2023-02-25T04:51:22;5.20;99.90
24902;DHT22;31328;51.402;0.016;2023-02-25T04:53:48;5.20;99.90
24902;DHT22;31328;51.402;0.016;2023-02-25T04:56:15;5.20;99.90
24902;DHT22;31328;51.402;0.016;2023-02-25T04:58:41;5.20;99.90
24902;DHT22;31328;51.402;0.016;2023-02-25T05:01:09;5.20;99.90
24902;DHT22;31328;51.402;0.016;2023-02-25T05:03:36;5.20;99.90
24902;DHT22;31328;51.402;0.016;2023-02-25T05:06:04;5.20;99.90
24902;DHT22;31328;51.402;0.016;2023-02-25T05:08:31;5.20;99.90
24902;DHT22;31328;51.402;0.016;2023-02-25T05:10:57;5.20;99.90
24902;DHT22;31328;51.402;0.016;2023-02-25T05:13:24;5.20;99.90
24902;DHT22;31328;51.402;0.016;2023-02-25T05:15:50;5.20;99.90
24902;DHT22;31328;51.402;0.016;2023-02-25T05:18:17;5.20;99.90
24902;DHT22;31328;51.402;0.016;2023-02-25T05:20:45;5.20;99.90
24902;DHT22;31328;51.402;0.016;2023-02-25T05:23:12;5.10;99.90
24902;DHT22;31328;51.402;0.016;2023-02-25T05:25:39;5.20;99.90
24902;DHT22;31328;51.402;0.016;2023-02-25T05:28:11;5.20;99.90
24902;DHT22;31328;51.402;0.016;2023-02-25T05:30:38;5.10;99.90
24902;DHT22;31328;51.402;0.016;2023-02-25T05:33:06;5.20;99.90
24902;DHT22;31328;51.402;0.016;2023-02-25T05:35:34;5.20;99.90
24902;DHT22;31328;51.402;0.016;2023-02-25T05:38:00;5.20;99.90
24902;DHT22;31328;51.402;0.016;2023-02-25T05:40:26;5.20;99.90
24902;DHT22;31328;51.402;0.016;2023-02-25T05:42:53;5.20;99.90
24902;DHT22;31328;51.402;0.016;2023-02-25T05:45:19;5.20;99.90
24902;DHT22;31328;51.402;0.016;2023-02-25T05:47:45;5.10;99.90
24902;DHT22;31328;51.402;0.016;2023-02-25T05:50:12;5.10;99.90
24902;DHT22;31328;51.402;0.016;2023-02-25T05:52:38;5.10;99.90
24902;DHT22;31328;51.402;0.016;2023-02-25T05:55:05;5.10;99.90
24902;DHT22;31328;51.402;0.016;2023-02-25T05:57:34;5.10;99.90
24902;DHT22;31328;51.402;0.016;2023-02-25T06:00:00;5.10;99.90
24902;DHT22;31328;51.402;0.016;2023-02-25T06:02:26;5.10;99.90
24902;DHT22;31328;51.402;0.016;2023-02-25T06:04:53;5.20;99.90
24902;DHT22;31328;51.402;0.016;2023-02-25T06:07:20;5.10;99.90
24902;DHT22;31328;51.402;0.016;2023-02-25T06:09:46;5.20;99.90
24902;DHT22;31328;51.402;0.016;2023-02-25T06:12:12;5.10;99.90
24902;DHT22;31328;51.402;0.016;2023-02-25T06:14:38;5.20;99.90
24902;DHT22;31328;51.402;0.016;2023-02-25T06:17:05;5.20;99.90
24902;DHT22;31328;51.402;0.016;2023-02-25T06:19:31;5.10;99.90
24902;DHT22;31328;51.402;0.016;2023-02-25T06:21:57;5.20;99.90
24902;DHT22;31328;51.402;0.016;2023-02-25T06:24:24;5.10;99.90
24902;DHT22;31328;51.402;0.016;2023-02-25T06:26:50;5.10;99.90
24902;DHT22;31328;51.402;0.016;2023-02-25T06:29:16;5.10;99.90
24902;DHT22;31328;51.402;0.016;2023-02-25T06:31:43;5.10;99.90
24902;DHT22;31328;51.402;0.016;2023-02-25T06:34:09;5.10;99.90
24902;DHT22;31328;51.402;0.016;2023-02-25T06:36:35;5.10;99.90
24902;DHT22;31328;51.402;0.016;2023-02-25T06:39:02;5.10;99.90
24902;DHT22;31328;51.402;0.016;2023-02-25T06:41:28;5.10;99.90
24902;DHT22;31328;51.402;0.016;2023-02-25T06:43:55;5.10;99.90
24902;DHT22;31328;51.402;0.016;2023-02-25T06:46:24;5.00;99.90
24902;DHT22;31328;51.402;0.016;2023-02-25T06:48:50;5.00;99.90
24902;DHT22;31328;51.402;0.016;2023-02-25T06:51:17;5.10;99.90
24902;DHT22;31328;51.402;0.016;2023-02-25T06:53:44;5.10;99.90
24902;DHT22;31328;51.402;0.016;2023-02-25T06:56:12;5.10;99.90
24902;DHT22;31328;51.402;0.016;2023-02-25T06:58:38;5.00;99.90
24902;DHT22;31328;51.402;0.016;2023-02-25T07:01:07;5.00;99.90
24902;DHT22;31328;51.402;0.016;2023-02-25T07:03:34;5.10;99.90
24902;DHT22;31328;51.402;0.016;2023-02-25T07:06:00;5.10;99.90
24902;DHT22;31328;51.402;0.016;2023-02-25T07:08:26;5.10;99.90
24902;DHT22;31328;51.402;0.016;2023-02-25T07:10:53;5.10;99.90
24902;DHT22;31328;51.402;0.016;2023-02-25T07:13:19;5.10;99.90
24902;DHT22;31328;51.402;0.016;2023-02-25T07:15:45;5.10;99.90
24902;DHT22;31328;51.402;0.016;2023-02-25T07:18:12;5.10;99.90
24902;DHT22;31328;51.402;0.016;2023-02-25T07:20:38;5.10;99.90
24902;DHT22;31328;51.402;0.016;2023-02-25T07:23:04;5.10;99.90
24902;DHT22;31328;51.402;0.016;2023-02-25T07:25:31;5.10;99.90
24902;DHT22;31328;51.402;0.016;2023-02-25T07:27:57;5.20;99.90
24902;DHT22;31328;51.402;0.016;2023-02-25T07:30:24;5.20;99.90
24902;DHT22;31328;51.402;0.016;2023-02-25T07:32:50;5.20;99.90
24902;DHT22;31328;51.402;0.016;2023-02-25T07:35:16;5.20;99.90
24902;DHT22;31328;51.402;0.016;2023-02-25T07:37:43;5.20;99.90
24902;DHT22;31328;51.402;0.016;2023-02-25T07:40:10;5.30;99.90
24902;DHT22;31328;51.402;0.016;2023-02-25T07:42:40;5.30;99.90
24902;DHT22;31328;51.402;0.016;2023-02-25T07:45:08;5.30;99.90
24902;DHT22;31328;51.402;0.016;2023-02-25T07:47:35;5.30;99.90
24902;DHT22;31328;51.402;0.016;2023-02-25T07:50:03;5.30;99.90
24902;DHT22;31328;51.402;0.016;2023-02-25T07:52:29;5.30;99.90
24902;DHT22;31328;51.402;0.016;2023-02-25T07:54:56;5.40;99.90
24902;DHT22;31328;51.402;0.016;2023-02-25T07:57:22;5.40;99.90
24902;DHT22;31328;51.402;0.016;2023-02-25T07:59:48;5.40;99.90
24902;DHT22;31328;51.402;0.016;2023-02-25T08:02:14;5.40;99.90
24902;DHT22;31328;51.402;0.016;2023-02-25T08:04:41;5.40;99.90
24902;DHT22;31328;51.402;0.016;2023-02-25T08:07:07;5.40;99.90
24902;DHT22;31328;51.402;0.016;2023-02-25T08:09:33;5.40;99.90
24902;DHT22;31328;51.402;0.016;2023-02-25T08:12:00;5.50;99.90
24902;DHT22;31328;51.402;0.016;2023-02-25T08:14:26;5.50;99.90
24902;DHT22;31328;51.402;0.016;2023-02-25T08:16:55;5.50;99.90
24902;DHT22;31328;51.402;0.016;2023-02-25T08:19:21;5.60;99.90
24902;DHT22;31328;51.402;0.016;2023-02-25T08:21:48;5.60;99.90
24902;DHT22;31328;51.402;0.016;2023-02-25T08:24:14;5.60;99.90
24902;DHT22;31328;51.402;0.016;2023-02-25T08:26:40;5.70;99.90
24902;DHT22;31328;51.402;0.016;2023-02-25T08:29:07;5.70;99.90
24902;DHT22;31328;51.402;0.016;2023-02-25T08:31:33;5.70;99.90
24902;DHT22;31328;51.402;0.016;2023-02-25T08:33:59;5.80;99.90
24902;DHT22;31328;51.402;0.016;2023-02-25T08:36:28;5.80;99.90
24902;DHT22;31328;51.402;0.016;2023-02-25T08:38:56;5.80;99.90
24902;DHT22;31328;51.402;0.016;2023-02-25T08:41:23;5.90;99.90
24902;DHT22;31328;51.402;0.016;2023-02-25T08:43:52;5.90;99.90
24902;DHT22;31328;51.402;0.016;2023-02-25T08:46:24;5.90;99.90
24902;DHT22;31328;51.402;0.016;2023-02-25T08:48:52;5.90;99.90
24902;DHT22;31328;51.402;0.016;2023-02-25T08:51:19;6.00;99.90
24902;DHT22;31328;51.402;0.016;2023-02-25T08:53:46;6.10;99.90
24902;DHT22;31328;51.402;0.016;2023-02-25T08:56:14;6.10;99.90
24902;DHT22;31328;51.402;0.016;2023-02-25T08:58:41;6.20;99.90
24902;DHT22;31328;51.402;0.016;2023-02-25T09:01:10;6.20;99.90
24902;DHT22;31328;51.402;0.016;2023-02-25T09:03:43;6.30;99.90
24902;DHT22;31328;51.402;0.016;2023-02-25T09:06:24;6.40;99.90
24902;DHT22;31328;51.402;0.016;2023-02-25T09:08:52;6.40;99.90
24902;DHT22;31328;51.402;0.016;2023-02-25T09:11:21;6.40;99.90
24902;DHT22;31328;51.402;0.016;2023-02-25T09:13:48;6.40;99.90
24902;DHT22;31328;51.402;0.016;2023-02-25T09:16:14;6.50;99.90
24902;DHT22;31328;51.402;0.016;2023-02-25T09:18:43;6.50;99.90
24902;DHT22;31328;51.402;0.016;2023-02-25T09:21:11;6.50;99.90
24902;DHT22;31328;51.402;0.016;2023-02-25T09:23:38;6.60;99.90
24902;DHT22;31328;51.402;0.016;2023-02-25T09:26:05;6.60;99.90
24902;DHT22;31328;51.402;0.016;2023-02-25T09:28:32;6.70;99.90
24902;DHT22;31328;51.402;0.016;2023-02-25T09:30:59;6.70;99.90
24902;DHT22;31328;51.402;0.016;2023-02-25T09:33:29;6.80;99.90
24902;DHT22;31328;51.402;0.016;2023-02-25T09:36:06;6.80;99.90
24902;DHT22;31328;51.402;0.016;2023-02-25T09:38:34;6.80;99.90
24902;DHT22;31328;51.402;0.016;2023-02-25T09:41:01;6.80;99.90
24902;DHT22;31328;51.402;0.016;2023-02-25T09:43:30;6.90;99.90
24902;DHT22;31328;51.402;0.016;2023-02-25T09:46:06;6.90;99.90
24902;DHT22;31328;51.402;0.016;2023-02-25T09:48:38;6.90;99.90
24902;DHT22;31328;51.402;0.016;2023-02-25T09:51:32;6.90;99.90
24902;DHT22;31328;51.402;0.016;2023-02-25T09:54:20;6.90;99.90
24902;DHT22;31328;51.402;0.016;2023-02-25T09:56:48;6.80;99.90
24902;DHT22;31328;51.402;0.016;2023-02-25T09:59:17;6.80;99.90
24902;DHT22;31328;51.402;0.016;2023-02-25T10:01:58;6.80;99.90
24902;DHT22;31328;51.402;0.016;2023-02-25T10:04:37;6.80;99.90
24902;DHT22;31328;51.402;0.016;2023-02-25T10:07:20;6.80;99.90
24902;DHT22;31328;51.402;0.016;2023-02-25T10:09:53;6.80;99.90
24902;DHT22;31328;51.402;0.016;2023-02-25T10:21:25;7.20;99.70
24902;DHT22;31328;51.402;0.016;2023-02-25T10:24:28;7.40;99.50
24902;DHT22;31328;51.402;0.016;2023-02-25T10:27:05;7.50;99.30
24902;DHT22;31328;51.402;0.016;2023-02-25T10:29:41;7.60;99.20
24902;DHT22;31328;51.402;0.016;2023-02-25T10:32:23;7.60;99.10
24902;DHT22;31328;51.402;0.016;2023-02-25T10:34:52;7.70;98.90
24902;DHT22;31328;51.402;0.016;2023-02-25T10:37:25;7.70;98.90
24902;DHT22;31328;51.402;0.016;2023-02-25T10:39:58;7.70;98.70
24902;DHT22;31328;51.402;0.016;2023-02-25T10:42:25;7.80;98.70
24902;DHT22;31328;51.402;0.016;2023-02-25T10:44:51;7.80;98.50
24902;DHT22;31328;51.402;0.016;2023-02-25T10:47:46;7.90;98.40
24902;DHT22;31328;51.402;0.016;2023-02-25T10:50:15;7.90;98.00
24902;DHT22;31328;51.402;0.016;2023-02-25T10:52:55;7.90;97.90
24902;DHT22;31328;51.402;0.016;2023-02-25T10:57:54;8.00;98.10
24902;DHT22;31328;51.402;0.016;2023-02-25T11:00:27;8.10;97.60
24902;DHT22;31328;51.402;0.016;2023-02-25T11:02:54;8.10;97.50
24902;DHT22;31328;51.402;0.016;2023-02-25T11:05:38;8.10;97.60
24902;DHT22;31328;51.402;0.016;2023-02-25T11:08:26;8.10;97.40
24902;DHT22;31328;51.402;0.016;2023-02-25T11:11:08;8.10;97.40
24902;DHT22;31328;51.402;0.016;2023-02-25T11:13:38;8.00;97.40
24902;DHT22;31328;51.402;0.016;2023-02-25T11:16:09;8.10;97.40
24902;DHT22;31328;51.402;0.016;2023-02-25T11:18:38;8.10;97.30
24902;DHT22;31328;51.402;0.016;2023-02-25T11:21:08;8.10;97.20
24902;DHT22;31328;51.402;0.016;2023-02-25T11:23:44;8.10;97.60
24902;DHT22;31328;51.402;0.016;2023-02-25T11:26:38;8.10;97.20
24902;DHT22;31328;51.402;0.016;2023-02-25T11:29:20;8.10;97.00
24902;DHT22;31328;51.402;0.016;2023-02-25T11:31:52;8.10;96.70
24902;DHT22;31328;51.402;0.016;2023-02-25T11:34:22;8.10;96.90
24902;DHT22;31328;51.402;0.016;2023-02-25T11:36:49;8.20;96.90
24902;DHT22;31328;51.402;0.016;2023-02-25T11:39:25;8.20;96.90
24902;DHT22;31328;51.402;0.016;2023-02-25T11:41:56;8.20;96.40
24902;DHT22;31328;51.402;0.016;2023-02-25T11:44:39;8.20;96.30
24902;DHT22;31328;51.402;0.016;2023-02-25T11:47:21;8.30;96.30
24902;DHT22;31328;51.402;0.016;2023-02-25T11:53:29;8.50;95.60
24902;DHT22;31328;51.402;0.016;2023-02-25T11:55:51;8.60;95.60
24902;DHT22;31328;51.402;0.016;2023-02-25T11:58:29;8.70;95.10
24902;DHT22;31328;51.402;0.016;2023-02-25T12:14:46;8.70;94.20
24902;DHT22;31328;51.402;0.016;2023-02-25T12:17:46;8.70;94.60
24902;DHT22;31328;51.402;0.016;2023-02-25T12:31:52;8.30;95.10
24902;DHT22;31328;51.402;0.016;2023-02-25T12:34:41;8.10;95.70
24902;DHT22;31328;51.402;0.016;2023-02-25T12:37:36;8.00;96.40
24902;DHT22;31328;51.402;0.016;2023-02-25T12:57:35;7.40;98.00
24902;DHT22;31328;51.402;0.016;2023-02-25T13:08:30;7.60;97.60
24902;DHT22;31328;51.402;0.016;2023-02-25T13:14:11;7.50;97.60
24902;DHT22;31328;51.402;0.016;2023-02-25T13:22:15;7.40;98.00
24902;DHT22;31328;51.402;0.016;2023-02-25T13:30:58;7.50;97.90
24902;DHT22;31328;51.402;0.016;2023-02-25T13:37:08;7.70;97.00
24902;DHT22;31328;51.402;0.016;2023-02-25T13:42:39;7.80;96.50
24902;DHT22;31328;51.402;0.016;2023-02-25T13:48:14;7.80;96.00
24902;DHT22;31328;51.402;0.016;2023-02-25T13:53:29;7.80;96.10
24902;DHT22;31328;51.402;0.016;2023-02-25T14:01:54;7.90;96.10
24902;DHT22;31328;51.402;0.016;2023-02-25T14:07:22;8.00;95.80
24902;DHT22;31328;51.402;0.016;2023-02-25T14:23:55;8.70;95.60
24902;DHT22;31328;51.402;0.016;2023-02-25T14:26:51;8.70;94.80
24902;DHT22;31328;51.402;0.016;2023-02-25T14:29:54;8.70;94.20
24902;DHT22;31328;51.402;0.016;2023-02-25T14:32:54;8.70;93.90
24902;DHT22;31328;51.402;0.016;2023-02-25T14:38:17;8.60;94.00
24902;DHT22;31328;51.402;0.016;2023-02-25T14:40:55;8.60;94.20
24902;DHT22;31328;51.402;0.016;2023-02-25T14:43:27;8.60;93.80
24902;DHT22;31328;51.402;0.016;2023-02-25T14:46:16;8.60;93.80
24902;DHT22;31328;51.402;0.016;2023-02-25T15:11:23;8.80;93.70
24902;DHT22;31328;51.402;0.016;2023-02-25T15:16:33;8.80;93.70
24902;DHT22;31328;51.402;0.016;2023-02-25T15:24:40;8.70;93.00
24902;DHT22;31328;51.402;0.016;2023-02-25T15:35:14;8.60;93.00
24902;DHT22;31328;51.402;0.016;2023-02-25T15:38:04;8.60;93.00
24902;DHT22;31328;51.402;0.016;2023-02-25T15:43:45;8.50;92.40
24902;DHT22;31328;51.402;0.016;2023-02-25T15:46:37;8.50;92.50
24902;DHT22;31328;51.402;0.016;2023-02-25T15:48:38;8.40;92.10
24902;DHT22;31328;51.402;0.016;2023-02-25T15:51:40;8.30;92.40
24902;DHT22;31328;51.402;0.016;2023-02-25T15:53:57;8.30;92.30
24902;DHT22;31328;51.402;0.016;2023-02-25T15:56:28;8.20;92.20
24902;DHT22;31328;51.402;0.016;2023-02-25T15:58:58;8.10;92.30
24902;DHT22;31328;51.402;0.016;2023-02-25T16:01:37;8.10;92.30
24902;DHT22;31328;51.402;0.016;2023-02-25T16:04:41;8.10;92.60
24902;DHT22;31328;51.402;0.016;2023-02-25T16:07:13;8.10;92.60
24902;DHT22;31328;51.402;0.016;2023-02-25T16:09:43;8.10;92.50
24902;DHT22;31328;51.402;0.016;2023-02-25T16:12:12;8.10;92.50
24902;DHT22;31328;51.402;0.016;2023-02-25T16:14:40;8.10;92.40
24902;DHT22;31328;51.402;0.016;2023-02-25T16:17:32;8.10;92.50
24902;DHT22;31328;51.402;0.016;2023-02-25T16:20:17;8.20;92.30
24902;DHT22;31328;51.402;0.016;2023-02-25T16:22:46;8.20;92.50
24902;DHT22;31328;51.402;0.016;2023-02-25T16:25:17;8.30;92.60
24902;DHT22;31328;51.402;0.016;2023-02-25T16:27:54;8.30;92.70
24902;DHT22;31328;51.402;0.016;2023-02-25T16:30:30;8.40;92.70
24902;DHT22;31328;51.402;0.016;2023-02-25T16:33:29;8.40;92.80
24902;DHT22;31328;51.402;0.016;2023-02-25T16:36:37;8.30;92.90
24902;DHT22;31328;51.402;0.016;2023-02-25T16:39:16;8.30;93.00
24902;DHT22;31328;51.402;0.016;2023-02-25T16:41:44;8.20;93.10
24902;DHT22;31328;51.402;0.016;2023-02-25T16:44:23;8.20;93.30
24902;DHT22;31328;51.402;0.016;2023-02-25T16:46:54;8.10;93.20
24902;DHT22;31328;51.402;0.016;2023-02-25T16:49:33;8.10;93.40
24902;DHT22;31328;51.402;0.016;2023-02-25T16:52:03;8.00;93.40
24902;DHT22;31328;51.402;0.016;2023-02-25T16:54:33;8.00;93.60
24902;DHT22;31328;51.402;0.016;2023-02-25T16:57:03;7.90;93.60
24902;DHT22;31328;51.402;0.016;2023-02-25T16:59:34;7.80;93.80
24902;DHT22;31328;51.402;0.016;2023-02-25T17:02:08;7.80;93.80
24902;DHT22;31328;51.402;0.016;2023-02-25T17:04:46;7.70;93.80
24902;DHT22;31328;51.402;0.016;2023-02-25T17:07:24;7.70;93.80
24902;DHT22;31328;51.402;0.016;2023-02-25T17:09:53;7.70;94.00
24902;DHT22;31328;51.402;0.016;2023-02-25T17:12:41;7.60;93.90
24902;DHT22;31328;51.402;0.016;2023-02-25T17:15:15;7.60;93.70
24902;DHT22;31328;51.402;0.016;2023-02-25T17:17:43;7.60;93.70
24902;DHT22;31328;51.402;0.016;2023-02-25T17:20:19;7.60;93.60
24902;DHT22;31328;51.402;0.016;2023-02-25T17:22:50;7.60;93.40
24902;DHT22;31328;51.402;0.016;2023-02-25T17:25:17;7.60;93.40
24902;DHT22;31328;51.402;0.016;2023-02-25T17:27:46;7.60;93.50
24902;DHT22;31328;51.402;0.016;2023-02-25T17:32:59;7.50;93.50
24902;DHT22;31328;51.402;0.016;2023-02-25T17:35:26;7.50;93.50
24902;DHT22;31328;51.402;0.016;2023-02-25T17:37:56;7.50;93.60
24902;DHT22;31328;51.402;0.016;2023-02-25T17:40:27;7.40;93.60
24902;DHT22;31328;51.402;0.016;2023-02-25T17:45:57;7.30;93.40
24902;DHT22;31328;51.402;0.016;2023-02-25T17:48:29;7.20;93.30
24902;DHT22;31328;51.402;0.016;2023-02-25T17:51:04;7.10;93.10
24902;DHT22;31328;51.402;0.016;2023-02-25T17:53:48;7.00;93.10
24902;DHT22;31328;51.402;0.016;2023-02-25T17:56:22;7.00;93.10
24902;DHT22;31328;51.402;0.016;2023-02-25T17:58:51;7.00;93.10
24902;DHT22;31328;51.402;0.016;2023-02-25T18:01:21;6.90;93.10
24902;DHT22;31328;51.402;0.016;2023-02-25T18:03:48;6.90;93.10
24902;DHT22;31328;51.402;0.016;2023-02-25T18:08:57;6.90;93.10
24902;DHT22;31328;51.402;0.016;2023-02-25T18:13:51;6.90;93.00
24902;DHT22;31328;51.402;0.016;2023-02-25T18:16:39;6.90;93.10
24902;DHT22;31328;51.402;0.016;2023-02-25T18:19:09;6.90;93.10
24902;DHT22;31328;51.402;0.016;2023-02-25T18:21:40;6.80;93.20
24902;DHT22;31328;51.402;0.016;2023-02-25T18:24:07;6.80;93.30
24902;DHT22;31328;51.402;0.016;2023-02-25T18:26:35;6.90;93.40
24902;DHT22;31328;51.402;0.016;2023-02-25T18:29:07;6.80;93.50
24902;DHT22;31328;51.402;0.016;2023-02-25T18:31:34;6.80;93.60
24902;DHT22;31328;51.402;0.016;2023-02-25T18:34:01;6.80;93.60
24902;DHT22;31328;51.402;0.016;2023-02-25T18:36:27;6.80;93.70
24902;DHT22;31328;51.402;0.016;2023-02-25T18:38:56;6.80;93.80
24902;DHT22;31328;51.402;0.016;2023-02-25T18:41:23;6.70;93.70
24902;DHT22;31328;51.402;0.016;2023-02-25T18:43:50;6.60;93.90
24902;DHT22;31328;51.402;0.016;2023-02-25T18:46:19;6.60;93.70
24902;DHT22;31328;51.402;0.016;2023-02-25T18:48:45;6.60;93.80
24902;DHT22;31328;51.402;0.016;2023-02-25T18:51:12;6.50;93.90
24902;DHT22;31328;51.402;0.016;2023-02-25T18:53:41;6.50;94.10
24902;DHT22;31328;51.402;0.016;2023-02-25T18:56:11;6.40;94.20
24902;DHT22;31328;51.402;0.016;2023-02-25T18:58:40;6.30;94.30
24902;DHT22;31328;51.402;0.016;2023-02-25T19:01:18;6.30;94.40
24902;DHT22;31328;51.402;0.016;2023-02-25T19:03:45;6.30;94.50
24902;DHT22;31328;51.402;0.016;2023-02-25T19:06:11;6.20;94.60
24902;DHT22;31328;51.402;0.016;2023-02-25T19:08:37;6.10;94.70
24902;DHT22;31328;51.402;0.016;2023-02-25T19:11:04;6.10;94.80
24902;DHT22;31328;51.402;0.016;2023-02-25T19:13:34;6.00;94.90
24902;DHT22;31328;51.402;0.016;2023-02-25T19:16:02;6.00;94.90
24902;DHT22;31328;51.402;0.016;2023-02-25T19:18:28;6.00;95.00